Stolford, United Kingdom

4:56 AM BST on March 27, 2017 (GMT +0100)
Stockland Bristol, Somerset, UK | | Change Station

Elev 20 ft 51.19 °N, 3.08 °W | Updated 1 minute ago

Clear
Clear
39.0 °F
Feels Like 39 °F
N
0.0
Wind Variable Wind from SW
Gusts 0.0 mph

Today
High -- | Low -- °F
--% Chance of Precip.
Yesterday
High -- | Low -- °F
Precip. -- in
Pressure 30.18 in
Visibility 6.2 miles
Clouds
Windchill 39 °F
Dew Point 34 °F
Humidity 82%
Rainfall 0.00 in
Snow Depth Not available.
6:59 AM 7:37 PM
Waning Crescent, 1% visible
METAR EGFF 270350Z AUTO 07010KT 9999 NCD 07/04 Q1022
Pressure 30.18 in
Visibility 6.2 miles
Clouds
Windchill 39 °F
Dew Point 34 °F
Humidity 82%
Rainfall 0.00 in
Snow Depth Not available.
6:59 AM 7:37 PM
Waning Crescent, 1% visible
METAR EGFF 270350Z AUTO 07010KT 9999 NCD 07/04 Q1022

Get Severe Weather Alerts

Thanks for signing up!

Be on the lookout for a verification email in your inbox.

You'll start receiving the daily forecast at 8 AM.

×

10-Day Weather Forecast

×

Almanac

Astronomy

Mar. 27, 2017 Rise Set
Actual Time
Civil Twilight
Nautical Twilight
Astronomical Twilight
Moon
Length of Visible Light
Length of Day
Tomorrow will be .
, % of the Moon is Illuminated

Today's Extremes

Country Highs Country Lows

Community

WunderPhotos

Upload Photos

1,962,540 photos uploaded!

WunderBlog® & News

Nearby

Air Quality

  Air Quality AQ Index Pollutant
Not available.

Snow Depth

Station Depth Elevation

Earthquake Activity

City Distance Mag. Time & Date
Minimum magnitude displayed is 2.5.

Earthquake Activity

City Distance Mag. Time & Date
Minimum magnitude displayed is 2.5.

Coastal Water Temperatures

Place Temperature

Stations

Nearby Weather Stations

Station Location Temp. Windchill Dew Point Humidity Wind Precip. Elev Updated Type